Flight Track Log - Related Links

Times and Time Zones

All times are in EDT time to prevent confusion due to time zone crossing. See the UCA4800 flight status page for this flight to view local times or setup timezone preferences in your user account.

Time Position Orientation Groundspeed Altitude Reporting Facility
EDT Latitude Longitude Course Direction KTS MPH feet Rate Location/Type
Mon 09:56:15 AM 42.0725 -80.1999 233° Southwest  Level FlightAware Approximate
Mon 09:57:15 AM 42.0485 -80.2592 232° Southwest  Level FlightAware Approximate
Mon 09:58:15 AM 42.0068 -80.2865 235° Southwest  Level FlightAware Approximate
Mon 09:59:15 AM 41.9837 -80.3464 234° Southwest  Level FlightAware Approximate
Mon 10:00:15 AM 41.9514 -80.3971 235° Southwest  Level FlightAware Approximate
Mon 10:01:15 AM 41.9288 -80.4572 233° Southwest  Level FlightAware Approximate
Mon 10:02:15 AM 41.9061 -80.5172 229° Southwest  Level FlightAware Approximate
Mon 10:03:15 AM 41.8834 -80.5772 224° Southwest  Level FlightAware Approximate
Mon 10:04:12 AM 41.7931 -80.6944 233° Southwest 239 275 8,000  Level Cleveland Center
Mon 10:05:13 AM 41.7556 -80.7614 245° Southwest 237 273 8,000  Level Cleveland Center
Mon 10:06:13 AM 41.7261 -80.8447 253° West 242 278 8,000 -50 Level Cleveland Center
Mon 10:07:14 AM 41.7072 -80.9281 251° West 240 276 7,900 -567 Descending Cleveland Center
Mon 10:08:20 AM 41.6819 -81.0281 246° West 241 277 6,800 -991 Descending Cleveland Center
Mon 10:09:09 AM 41.6628 -81.0861 251° West 219 252 6,000 -271 Descending Cleveland Center
Mon 10:11:17 AM 41.6225 -81.2386 252° West 205 236 6,000  Level Cleveland Center
Mon 10:12:05 AM 41.6097 -81.2914 261° West 204 235 6,000 -330 Level Cleveland Center
Mon 10:13:06 AM 41.6008 -81.3689 256° West 205 236 5,400 -492 Descending Cleveland Center
Mon 10:14:07 AM 41.5878 -81.4411 256° West 209 241 5,000 -198 Descending Cleveland Center
Mon 10:15:07 AM 41.5725 -81.5214 252° West 203 234 5,000 -47 Level Cleveland Center
Mon 10:16:14 AM 41.5531 -81.6014 243° Southwest 217 250 4,900 -448 Descending Cleveland Center
Mon 10:17:21 AM 41.5211 -81.6842 228° Southwest 215 247 4,000 -836 Descending Cleveland Center
Mon 10:18:16 AM 41.4894 -81.7308 229° Southwest 187 215 3,200 -939 Descending Cleveland Center
Mon 10:19:16 AM 41.4597 -81.7772 229° Southwest 158 182 2,200 -793 Descending Cleveland Center
Mon 10:20:17 AM 41.4364 -81.8128 229° Southwest 133 153 1,600 -590 Descending Cleveland Center

Login

Don't have an account? Register now (free) for customized features, flight alerts, and more!